Time;durP1;ratioP1;P1;durP2;ratioP2;P2;SDS_P1;SDS_P2;PMS_P1;PMS_P2;Temp;Humidity;BMP_temperature;BMP_pressure;BME280_temperature;BME280_humidity;BME280_pressure;Samples;Min_cycle;Max_cycle;Signal;HPM_P1;HPM_P2
2021/07/18 00:01:37;;;;;;;12.20;8.13;;;20.80;88.40;;;;;;5052920;28;20017;-82
2021/07/18 00:04:02;;;;;;;13.30;7.68;;;20.80;88.50;;;;;;5052906;28;20112;-81
2021/07/18 00:06:28;;;;;;;15.07;8.88;;;20.80;88.60;;;;;;5052847;28;20060;-81
2021/07/18 00:08:54;;;;;;;12.43;7.82;;;20.70;88.80;;;;;;5052913;28;20056;-80
2021/07/18 00:11:19;;;;;;;10.90;7.75;;;20.60;88.80;;;;;;5052813;28;20025;-81
2021/07/18 00:13:45;;;;;;;13.13;8.15;;;20.60;88.70;;;;;;5052834;28;20063;-83
2021/07/18 00:16:11;;;;;;;11.93;7.50;;;20.60;88.20;;;;;;5052750;28;20123;-82
2021/07/18 00:18:36;;;;;;;12.45;7.88;;;20.50;88.50;;;;;;5052758;28;20390;-82
2021/07/18 00:21:02;;;;;;;15.10;7.90;;;20.30;88.60;;;;;;5052703;28;20032;-81
2021/07/18 00:23:28;;;;;;;13.23;8.05;;;20.40;88.40;;;;;;5052663;28;20021;-80
2021/07/18 00:25:53;;;;;;;12.90;7.45;;;20.40;88.10;;;;;;5052714;28;20045;-82
2021/07/18 00:28:19;;;;;;;12.82;7.75;;;20.50;87.90;;;;;;5055190;28;20397;-85
2021/07/18 00:30:45;;;;;;;10.80;6.90;;;20.40;87.80;;;;;;5056730;28;20032;-82
2021/07/18 00:33:10;;;;;;;12.15;8.27;;;20.40;87.80;;;;;;5056377;28;20025;-81
2021/07/18 00:35:36;;;;;;;12.77;8.25;;;20.40;87.90;;;;;;5056347;28;20385;-81
2021/07/18 00:38:02;;;;;;;13.27;7.85;;;20.30;88.40;;;;;;5056490;28;20029;-83
2021/07/18 00:40:28;;;;;;;12.90;8.13;;;20.20;88.60;;;;;;5056269;28;20104;-82
2021/07/18 00:42:54;;;;;;;13.60;8.45;;;20.10;88.30;;;;;;5056552;28;20456;-82
2021/07/18 00:45:19;;;;;;;12.60;8.10;;;20.00;88.30;;;;;;5056158;28;20079;-82
2021/07/18 00:47:45;;;;;;;12.48;7.72;;;20.00;88.60;;;;;;5056363;28;20029;-82
2021/07/18 00:50:13;;;;;;;12.70;8.43;;;19.90;88.80;;;;;;5056120;28;20092;-82
2021/07/18 00:52:39;;;;;;;15.05;7.78;;;19.60;90.00;;;;;;5056335;28;20100;-82
2021/07/18 00:55:07;;;;;;;11.07;7.32;;;19.50;90.10;;;;;;5056069;28;20025;-82
2021/07/18 00:57:33;;;;;;;14.23;8.65;;;19.40;90.20;;;;;;5055858;28;20112;-83
2021/07/18 01:00:08;;;;;;;11.13;6.70;;;19.50;90.10;;;;;;5055869;28;20477;-81
2021/07/18 01:02:35;;;;;;;10.63;6.50;;;19.50;89.90;;;;;;5055839;28;20032;-82
2021/07/18 01:05:01;;;;;;;10.07;6.70;;;19.60;89.20;;;;;;5055777;28;20100;-82
2021/07/18 01:07:28;;;;;;;10.07;6.78;;;19.60;89.20;;;;;;5056022;28;20108;-82
2021/07/18 01:09:54;;;;;;;9.75;6.40;;;19.60;88.60;;;;;;5055304;28;20068;-82
2021/07/18 01:12:20;;;;;;;9.40;6.97;;;19.60;88.60;;;;;;5055695;28;20021;-82
2021/07/18 01:14:48;;;;;;;13.35;7.50;;;19.70;88.00;;;;;;5055671;28;20393;-81
2021/07/18 01:17:14;;;;;;;11.93;7.50;;;19.60;87.90;;;;;;5055743;28;20060;-80
2021/07/18 01:19:40;;;;;;;11.75;7.30;;;19.50;88.60;;;;;;5056063;28;20465;-81
2021/07/18 01:22:06;;;;;;;10.00;6.50;;;19.30;88.60;;;;;;5055813;28;20025;-83
2021/07/18 01:24:32;;;;;;;9.90;7.20;;;19.30;89.30;;;;;;5055543;28;20481;-81
2021/07/18 01:26:59;;;;;;;12.73;7.68;;;19.20;89.00;;;;;;5055394;28;20025;-80
2021/07/18 01:29:27;;;;;;;12.20;7.30;;;19.20;89.40;;;;;;5055372;28;20066;-81
2021/07/18 01:31:52;;;;;;;9.27;6.53;;;19.10;89.50;;;;;;5055344;28;20028;-83
2021/07/18 01:34:18;;;;;;;10.13;7.68;;;19.10;89.60;;;;;;5055267;28;20086;-82
2021/07/18 01:36:44;;;;;;;10.40;7.10;;;19.10;89.70;;;;;;5055423;28;20029;-82
2021/07/18 01:39:11;;;;;;;11.07;7.32;;;19.10;89.80;;;;;;5055261;28;20097;-83
2021/07/18 01:41:36;;;;;;;13.73;7.25;;;19.00;90.00;;;;;;5055154;28;20025;-80
2021/07/18 01:44:04;;;;;;;10.57;7.78;;;19.00;90.00;;;;;;5055403;28;20017;-84
2021/07/18 01:46:30;;;;;;;11.65;7.45;;;19.00;90.00;;;;;;5055015;28;20032;-82
2021/07/18 01:48:58;;;;;;;12.20;6.32;;;19.10;90.00;;;;;;5055025;28;20025;-83
2021/07/18 01:51:25;;;;;;;13.60;7.65;;;19.20;89.60;;;;;;5054961;28;20028;-84
2021/07/18 01:53:54;;;;;;;11.05;7.60;;;19.10;89.70;;;;;;5054848;28;20027;-84
2021/07/18 01:56:20;;;;;;;11.43;6.80;;;19.10;89.70;;;;;;5054759;28;20543;-83
2021/07/18 01:58:51;;;;;;;12.23;8.18;;;19.10;89.60;;;;;;5055041;28;20068;-82
2021/07/18 02:01:27;;;;;;;10.85;7.18;;;19.10;89.60;;;;;;5055358;28;20021;-82
2021/07/18 02:03:55;;;;;;;12.73;8.05;;;19.20;89.40;;;;;;5055011;28;20497;-80
2021/07/18 02:06:22;;;;;;;14.05;8.02;;;19.10;89.40;;;;;;5054656;28;20056;-82
2021/07/18 02:08:53;;;;;;;15.35;7.63;;;19.00;90.00;;;;;;5054417;28;20051;-82
2021/07/18 02:11:20;;;;;;;12.57;7.40;;;19.00;90.10;;;;;;5054816;28;20032;-83
2021/07/18 02:13:51;;;;;;;12.38;8.40;;;19.10;90.10;;;;;;5054503;28;20021;-82
2021/07/18 02:16:17;;;;;;;12.57;7.70;;;19.10;90.00;;;;;;5054370;28;20032;-80
2021/07/18 02:18:44;;;;;;;10.45;7.45;;;19.10;88.90;;;;;;5054576;28;20139;-81
2021/07/18 02:21:10;;;;;;;13.40;7.03;;;19.00;88.70;;;;;;5054509;28;20028;-83
2021/07/18 02:23:36;;;;;;;11.38;7.25;;;18.90;89.50;;;;;;5054701;28;20017;-81
2021/07/18 02:26:02;;;;;;;12.40;7.30;;;18.90;89.40;;;;;;5054309;28;20070;-82
2021/07/18 02:28:27;;;;;;;10.30;6.53;;;18.80;89.30;;;;;;5054228;28;20551;-81
2021/07/18 02:30:53;;;;;;;10.85;7.30;;;18.80;89.00;;;;;;5054702;28;20040;-80
2021/07/18 02:33:19;;;;;;;10.95;7.13;;;18.80;89.00;;;;;;5054180;28;20032;-81
2021/07/18 02:35:44;;;;;;;9.38;6.68;;;18.70;88.80;;;;;;5054042;28;20029;-84
2021/07/18 02:38:10;;;;;;;10.52;7.38;;;18.70;88.90;;;;;;5054233;28;20029;-83
2021/07/18 02:40:36;;;;;;;9.95;6.93;;;18.60;89.00;;;;;;5053987;28;20028;-81
2021/07/18 02:43:02;;;;;;;10.38;6.82;;;18.70;88.90;;;;;;5053946;28;20547;-83
2021/07/18 02:45:30;;;;;;;11.43;7.07;;;18.70;88.60;;;;;;5054420;28;20021;-81
2021/07/18 02:47:56;;;;;;;13.95;7.53;;;18.60;88.70;;;;;;5053835;28;20071;-83
2021/07/18 02:50:24;;;;;;;10.73;6.63;;;18.60;89.00;;;;;;5052999;28;20429;-83
2021/07/18 02:52:49;;;;;;;11.35;6.93;;;18.60;88.90;;;;;;5053729;28;20021;-82
2021/07/18 02:55:15;;;;;;;12.15;8.00;;;18.60;89.00;;;;;;5053711;28;20116;-83
2021/07/18 02:57:41;;;;;;;10.35;7.22;;;18.40;89.60;;;;;;5053892;28;20025;-80
2021/07/18 03:00:13;;;;;;;10.05;7.30;;;18.40;89.70;;;;;;5053666;28;20029;-81
2021/07/18 03:02:39;;;;;;;11.07;7.55;;;18.30;90.00;;;;;;5035965;28;20017;-81
2021/07/18 03:05:06;;;;;;;11.95;8.20;;;18.20;90.10;;;;;;5052298;28;20025;-81
2021/07/18 03:07:32;;;;;;;12.95;7.85;;;18.20;90.20;;;;;;5035635;28;20105;-81
2021/07/18 03:09:58;;;;;;;11.20;7.38;;;18.20;90.30;;;;;;5053112;28;20124;-82
2021/07/18 03:12:25;;;;;;;11.20;8.10;;;18.00;90.80;;;;;;5053401;28;20442;-82
2021/07/18 03:14:50;;;;;;;12.93;8.20;;;18.00;90.70;;;;;;5053459;28;20032;-80
2021/07/18 03:17:16;;;;;;;10.90;7.53;;;18.10;90.60;;;;;;5053593;28;20060;-85
2021/07/18 03:19:42;;;;;;;11.52;7.97;;;18.10;90.60;;;;;;5053715;28;20025;-82
2021/07/18 03:22:08;;;;;;;11.35;8.02;;;18.10;90.50;;;;;;5053365;28;20032;-82
2021/07/18 03:24:34;;;;;;;12.38;7.60;;;18.00;90.40;;;;;;5053567;28;20027;-82
2021/07/18 03:26:59;;;;;;;12.55;7.50;;;18.00;90.10;;;;;;5053214;28;20468;-83
2021/07/18 03:29:26;;;;;;;10.73;7.18;;;18.00;89.70;;;;;;5035654;28;20032;-81
2021/07/18 03:31:52;;;;;;;10.23;6.68;;;18.00;89.20;;;;;;5053195;28;20021;-82
2021/07/18 03:34:18;;;;;;;11.48;7.50;;;18.00;89.20;;;;;;5053216;28;20437;-82
2021/07/18 03:36:43;;;;;;;10.45;6.80;;;18.00;89.10;;;;;;5053074;28;20563;-80
2021/07/18 03:39:09;;;;;;;10.88;7.13;;;18.00;89.80;;;;;;5053149;28;20017;-82
2021/07/18 03:41:35;;;;;;;10.52;7.15;;;17.90;90.00;;;;;;5053145;28;20096;-82
2021/07/18 03:44:00;;;;;;;12.02;7.20;;;17.80;89.90;;;;;;5053626;28;20048;-81
2021/07/18 03:46:26;;;;;;;11.48;7.38;;;17.60;90.10;;;;;;5053342;28;20064;-82
2021/07/18 03:48:52;;;;;;;12.55;7.28;;;17.50;90.10;;;;;;5053580;28;20506;-83
2021/07/18 03:51:18;;;;;;;10.27;7.28;;;17.70;90.00;;;;;;5053286;28;20108;-81
2021/07/18 03:53:45;;;;;;;11.00;7.65;;;17.60;89.80;;;;;;5053226;28;20112;-83
2021/07/18 03:56:11;;;;;;;12.48;7.22;;;;;;;;;;5053144;28;20032;-82
2021/07/18 03:58:37;;;;;;;10.57;7.38;;;17.50;90.30;;;;;;5052974;28;20025;-82
2021/07/18 04:01:09;;;;;;;10.38;6.95;;;;;;;;;;5053427;28;20072;-81
2021/07/18 04:03:35;;;;;;;12.65;7.70;;;;;;;;;;5057269;28;20027;-81
2021/07/18 04:06:03;;;;;;;11.15;7.95;;;;;;;;;;5057212;28;20029;-80
2021/07/18 04:08:29;;;;;;;11.52;7.75;;;;;;;;;;5056650;28;20497;-83
2021/07/18 04:10:55;;;;;;;11.90;7.63;;;;;;;;;;5056882;28;20032;-82
2021/07/18 04:13:21;;;;;;;11.68;7.28;;;;;;;;;;5057116;28;20035;-79
2021/07/18 04:15:47;;;;;;;11.80;7.13;;;;;;;;;;5038868;28;20497;-83
2021/07/18 04:18:13;;;;;;;11.95;7.53;;;;;;;;;;5056912;28;20036;-80
2021/07/18 04:20:39;;;;;;;12.18;7.55;;;;;;;;;;5056663;28;20028;-82
2021/07/18 04:23:06;;;;;;;11.55;7.32;;;;;;;;;;5056618;28;20491;-82
2021/07/18 04:25:32;;;;;;;11.02;7.05;;;;;;;;;;5056873;28;20019;-82
2021/07/18 04:27:58;;;;;;;10.98;6.93;;;;;;;;;;5056770;28;20079;-83
2021/07/18 04:30:24;;;;;;;11.43;6.82;;;;;;;;;;5056459;28;20028;-80
2021/07/18 04:32:50;;;;;;;10.27;7.53;;;;;;;;;;5056429;28;20481;-81
2021/07/18 04:35:16;;;;;;;9.52;7.25;;;;;;;;;;5056406;28;20028;-81
2021/07/18 04:37:42;;;;;;;13.48;7.95;;;;;;;;;;5056559;28;20090;-80
2021/07/18 04:40:11;;;;;;;11.18;7.75;;;;;;;;;;5056285;28;20086;-82
2021/07/18 04:42:37;;;;;;;12.18;7.97;;;;;;;;;;5056556;28;20373;-81
2021/07/18 04:45:03;;;;;;;13.55;7.90;;;;;;;;;;5056503;28;20025;-81
2021/07/18 04:47:29;;;;;;;9.75;7.30;;;;;;;;;;5056477;28;20021;-81
2021/07/18 04:49:55;;;;;;;10.18;7.43;;;;;;;;;;5056358;28;20048;-80
2021/07/18 04:52:21;;;;;;;11.60;7.90;;;;;;;;;;5056329;28;20025;-81
2021/07/18 04:54:47;;;;;;;12.65;8.30;;;;;;;;;;5055960;28;20066;-81
2021/07/18 04:57:13;;;;;;;12.30;7.35;;;;;;;;;;5056143;28;20091;-80
2021/07/18 04:59:39;;;;;;;13.15;7.88;;;;;;;;;;5055878;28;20101;-79
2021/07/18 05:02:05;;;;;;;12.13;8.15;;;;;;;;;;5055861;28;20021;-81
2021/07/18 05:04:31;;;;;;;13.85;8.38;;;;;;;;;;5055852;28;20028;-81
2021/07/18 05:06:57;;;;;;;12.77;8.23;;;;;;;;;;5055808;28;20021;-82
2021/07/18 05:09:24;;;;;;;11.35;8.45;;;;;;;;;;5055579;28;20140;-83
2021/07/18 05:11:50;;;;;;;13.25;9.00;;;;;;;;;;5056026;28;20037;-81
2021/07/18 05:14:16;;;;;;;13.02;8.70;;;;;;;;;;5054753;28;20028;-82
2021/07/18 05:16:42;;;;;;;15.85;8.65;;;;;;;;;;5055876;28;20029;-81
2021/07/18 05:19:08;;;;;;;15.55;8.15;;;;;;;;;;5055574;28;20017;-82
2021/07/18 05:21:34;;;;;;;10.80;8.02;;;;;;;;;;5055520;28;20155;-80
2021/07/18 05:24:00;;;;;;;11.82;7.70;;;;;;;;;;5055507;28;20103;-83
2021/07/18 05:26:26;;;;;;;10.73;7.65;;;;;;;;;;5055735;28;20062;-82
2021/07/18 05:28:53;;;;;;;15.63;8.68;;;;;;;;;;5055702;28;20568;-80
2021/07/18 05:31:19;;;;;;;14.85;8.60;;;;;;;;;;5055363;28;20028;-81
2021/07/18 05:33:45;;;;;;;17.48;9.38;;;;;;;;;;5055562;28;20147;-82
2021/07/18 05:36:11;;;;;;;14.90;8.60;;;;;;;;;;5037377;28;20489;-80
2021/07/18 05:38:37;;;;;;;12.10;8.15;;;;;;;;;;5055272;28;20063;-81
2021/07/18 05:41:04;;;;;;;13.45;7.63;;;17.50;90.70;;;;;;5055141;28;20374;-82
2021/07/18 05:43:30;;;;;;;11.25;8.00;;;18.00;90.60;;;;;;5055402;28;20047;-81
2021/07/18 05:45:56;;;;;;;13.57;8.15;;;18.00;90.70;;;;;;5055055;28;20489;-82
2021/07/18 05:48:25;;;;;;;12.68;8.27;;;18.10;90.50;;;;;;5055062;28;20473;-81
2021/07/18 05:50:54;;;;;;;10.18;7.30;;;18.20;90.40;;;;;;5055306;28;20047;-81
2021/07/18 05:53:19;;;;;;;13.13;7.95;;;18.30;90.30;;;;;;5054897;28;20104;-79
2021/07/18 05:55:45;;;;;;;12.68;7.60;;;18.50;90.20;;;;;;5054935;28;20454;-80
2021/07/18 05:58:11;;;;;;;10.73;7.22;;;18.50;90.30;;;;;;5054801;28;20064;-83
2021/07/18 06:00:40;;;;;;;12.55;8.57;;;18.60;90.30;;;;;;5054831;28;20049;-81
2021/07/18 06:03:06;;;;;;;13.45;8.90;;;18.60;90.60;;;;;;5055008;28;20017;-80
2021/07/18 06:05:31;;;;;;;13.63;8.65;;;18.60;90.70;;;;;;5054653;28;20095;-78
2021/07/18 06:07:57;;;;;;;15.02;9.00;;;18.60;90.80;;;;;;5054472;28;20057;-82
2021/07/18 06:10:22;;;;;;;15.82;8.27;;;18.70;90.80;;;;;;5054923;28;20388;-80
2021/07/18 06:12:48;;;;;;;13.73;8.25;;;18.80;90.80;;;;;;5054860;28;20029;-80
2021/07/18 06:15:14;;;;;;;12.57;8.18;;;;;;;;;;5054506;28;20078;-79
2021/07/18 06:17:40;;;;;;;10.07;7.22;;;;;;;;;;5054366;28;20467;-83
2021/07/18 06:20:10;;;;;;;12.57;7.68;;;;;;;;;;5054412;28;20021;-80
2021/07/18 06:22:36;;;;;;;13.05;7.30;;;;;;;;;;5054390;28;20393;-83
2021/07/18 06:25:04;;;;;;;12.75;7.30;;;;;;;;;;5036347;28;20435;-81
2021/07/18 06:27:30;;;;;;;10.45;7.03;;;;;;;;;;5054284;28;20082;-82
2021/07/18 06:29:56;;;;;;;12.35;6.57;;;;;;;;;;5054255;28;20424;-82
2021/07/18 06:32:22;;;;;;;11.52;6.90;;;;;;;;;;5054191;28;20040;-79
2021/07/18 06:34:48;;;;;;;12.02;6.72;;;;;;;;;;5054433;28;20024;-80
2021/07/18 06:37:15;;;;;;;9.95;6.38;;;;;;;;;;5054557;28;20033;-81
2021/07/18 06:39:41;;;;;;;13.05;6.45;;;;;;;;;;5054083;28;20126;-82
2021/07/18 06:42:07;;;;;;;12.98;6.25;;;19.00;90.70;;;;;;5053983;28;20532;-82
2021/07/18 06:44:32;;;;;;;10.55;5.93;;;21.30;86.20;;;;;;5053962;28;20017;-83
2021/07/18 06:46:58;;;;;;;12.90;6.20;;;21.60;85.30;;;;;;5054255;28;20496;-81
2021/07/18 06:49:24;;;;;;;10.57;6.07;;;21.80;84.20;;;;;;5054177;28;20035;-83
2021/07/18 06:51:49;;;;;;;10.90;5.20;;;22.20;83.10;;;;;;5053890;28;20021;-82
2021/07/18 06:54:15;;;;;;;10.27;5.20;;;22.50;82.20;;;;;;5053723;28;20545;-81
2021/07/18 06:56:41;;;;;;;9.77;4.95;;;22.60;81.40;;;;;;5053962;28;20033;-82
2021/07/18 06:59:07;;;;;;;10.82;5.05;;;22.90;80.60;;;;;;5053727;28;20468;-87
2021/07/18 07:01:32;;;;;;;11.27;5.95;;;23.10;79.50;;;;;;5053664;28;20024;-83
2021/07/18 07:03:58;;;;;;;9.02;4.93;;;23.30;79.20;;;;;;5053975;28;20439;-83
2021/07/18 07:06:24;;;;;;;8.25;5.00;;;23.50;78.40;;;;;;5053351;28;20040;-82
2021/07/18 07:08:52;;;;;;;8.30;5.05;;;23.60;77.70;;;;;;5053381;28;20045;-84
2021/07/18 07:11:19;;;;;;;11.40;5.85;;;23.90;76.60;;;;;;5053785;28;20017;-83
2021/07/18 07:13:45;;;;;;;9.70;5.30;;;24.20;75.10;;;;;;5054084;28;20385;-82
2021/07/18 07:16:11;;;;;;;8.10;4.90;;;24.40;74.40;;;;;;5053473;28;20013;-84
2021/07/18 07:18:37;;;;;;;9.18;4.55;;;24.40;74.70;;;;;;5053315;28;20033;-82
2021/07/18 07:21:02;;;;;;;9.70;5.28;;;24.60;74.60;;;;;;5053965;28;20028;-83
2021/07/18 07:23:28;;;;;;;9.65;4.93;;;24.90;73.90;;;;;;5053394;28;20025;-81
2021/07/18 07:25:54;;;;;;;8.23;5.20;;;25.00;72.80;;;;;;5053338;28;20453;-82
2021/07/18 07:28:20;;;;;;;10.18;5.68;;;25.20;72.10;;;;;;5053344;28;20029;-82
2021/07/18 07:30:45;;;;;;;7.63;4.72;;;25.30;71.80;;;;;;5053758;28;20147;-82
2021/07/18 07:33:12;;;;;;;9.45;4.35;;;25.50;71.00;;;;;;5053250;28;20036;-84
2021/07/18 07:35:38;;;;;;;8.35;4.65;;;25.70;70.60;;;;;;5052942;28;20017;-83
2021/07/18 07:38:07;;;;;;;9.63;5.00;;;25.80;69.60;;;;;;5034953;28;20041;-85
2021/07/18 07:40:32;;;;;;;8.85;5.15;;;26.00;68.70;;;;;;5053144;28;20063;-82
2021/07/18 07:42:58;;;;;;;8.75;4.40;;;26.40;66.80;;;;;;5053109;28;20063;-83
2021/07/18 07:45:23;;;;;;;8.13;4.78;;;26.50;66.60;;;;;;5053071;28;20052;-83
2021/07/18 07:47:49;;;;;;;8.65;4.80;;;26.60;67.20;;;;;;5053071;28;20032;-83
2021/07/18 07:50:15;;;;;;;9.40;5.28;;;27.00;64.40;;;;;;5053057;28;20111;-84
2021/07/18 07:52:42;;;;;;;10.52;4.75;;;27.10;64.50;;;;;;5053034;28;20367;-83
2021/07/18 07:55:09;;;;;;;8.18;3.92;;;27.20;64.00;;;;;;5053185;28;20079;-82
2021/07/18 07:57:35;;;;;;;7.72;4.32;;;27.30;63.50;;;;;;5053453;28;20028;-84
2021/07/18 08:00:06;;;;;;;11.85;4.68;;;27.40;63.30;;;;;;5053513;28;20017;-84
2021/07/18 08:02:32;;;;;;;8.43;4.43;;;27.70;62.00;;;;;;5034859;28;20075;-83
2021/07/18 08:04:58;;;;;;;5.75;3.95;;;27.80;61.30;;;;;;5053184;28;20021;-83
2021/07/18 08:07:23;;;;;;;12.27;4.70;;;28.10;61.20;;;;;;5053200;28;20478;-85
2021/07/18 08:09:49;;;;;;;6.88;4.20;;;28.30;60.10;;;;;;5052517;28;20052;-87
2021/07/18 08:12:14;;;;;;;6.32;3.60;;;28.60;60.00;;;;;;5052855;28;20032;-82
2021/07/18 08:14:40;;;;;;;7.72;3.80;;;;;;;;;;5052839;28;20393;-83
2021/07/18 08:17:06;;;;;;;11.52;4.50;;;;;;;;;;5052967;28;20040;-83
2021/07/18 08:19:33;;;;;;;8.35;3.90;;;;;;;;;;5053064;28;20098;-82
2021/07/18 08:21:59;;;;;;;5.45;3.80;;;;;;;;;;5053037;28;20123;-86
2021/07/18 08:24:25;;;;;;;7.82;3.58;;;;;;;;;;5052776;28;20462;-84
2021/07/18 08:26:50;;;;;;;10.40;3.92;;;28.60;58.70;;;;;;5052712;28;20037;-83
2021/07/18 08:29:16;;;;;;;7.00;3.70;;;;;;;;;;5052937;28;20032;-83
2021/07/18 08:31:42;;;;;;;7.68;3.78;;;;;;;;;;5052867;28;20025;-84
2021/07/18 08:34:08;;;;;;;7.50;3.47;;;;;;;;;;5052630;28;20056;-86
2021/07/18 08:36:34;;;;;;;5.93;3.53;;;;;;;;;;5052560;28;20029;-82
2021/07/18 08:39:00;;;;;;;6.63;3.88;;;;;;;;;;5053136;28;20025;-84
2021/07/18 08:41:27;;;;;;;5.15;3.42;;;;;;;;;;5052528;28;20025;-83
2021/07/18 08:43:53;;;;;;;8.57;3.85;;;;;;;;;;5053057;28;20013;-83
2021/07/18 08:46:20;;;;;;;6.63;3.28;;;;;;;;;;5052507;28;20424;-85
2021/07/18 08:48:47;;;;;;;7.03;3.45;;;;;;;;;;5053803;28;20380;-84
2021/07/18 08:51:13;;;;;;;5.50;3.47;;;;;;;;;;5056511;28;20096;-83
2021/07/18 08:53:39;;;;;;;8.32;3.28;;;;;;;;;;5056506;28;20377;-86
2021/07/18 08:56:06;;;;;;;5.63;3.42;;;;;;;;;;5056345;28;20029;-83
2021/07/18 08:58:32;;;;;;;5.97;3.03;;;;;;;;;;5056202;28;20029;-85
2021/07/18 09:00:58;;;;;;;6.07;3.03;;;;;;;;;;5056207;28;20033;-84
2021/07/18 09:03:24;;;;;;;6.70;3.15;;;;;;;;;;5055841;28;20493;-83
2021/07/18 09:05:53;;;;;;;6.63;3.10;;;;;;;;;;5055850;28;20029;-83
2021/07/18 09:08:19;;;;;;;5.97;3.05;;;;;;;;;;5055637;28;20065;-84
2021/07/18 09:10:47;;;;;;;6.05;3.28;;;;;;;;;;5055749;28;20033;-85
2021/07/18 09:13:14;;;;;;;6.18;2.75;;;;;;;;;;5055735;28;20021;-84
2021/07/18 09:15:40;;;;;;;4.63;2.88;;;;;;;;;;5055935;28;20413;-84
2021/07/18 09:18:09;;;;;;;4.75;2.92;;;;;;;;;;5055841;28;20021;-86
2021/07/18 09:20:40;;;;;;;8.23;2.83;;;;;;;;;;5056116;28;20488;-86
2021/07/18 09:23:10;;;;;;;6.28;3.25;;;;;;;;;;5055793;28;20032;-83
2021/07/18 09:25:36;;;;;;;4.65;2.63;;;;;;;;;;5055563;28;20029;-81
2021/07/18 09:28:10;;;;;;;5.30;3.05;;;;;;;;;;5055474;28;20098;-81
2021/07/18 09:30:36;;;;;;;5.75;2.85;;;;;;;;;;5055779;28;20134;-81
2021/07/18 09:33:02;;;;;;;6.70;2.80;;;30.00;54.60;;;;;;5055625;28;20481;-81
2021/07/18 09:35:28;;;;;;;5.80;3.20;;;37.40;39.00;;;;;;5055300;28;20090;-82
2021/07/18 09:37:54;;;;;;;4.57;2.80;;;37.30;39.00;;;;;;5055214;28;20389;-81
2021/07/18 09:40:23;;;;;;;6.78;3.33;;;37.10;38.10;;;;;;5055211;28;20025;-80
2021/07/18 09:42:51;;;;;;;5.95;3.05;;;37.10;38.20;;;;;;5055172;28;20013;-82
2021/07/18 09:45:18;;;;;;;6.37;2.70;;;37.40;38.20;;;;;;5055781;28;20017;-83
2021/07/18 09:48:08;;;;;;;5.05;2.97;;;37.40;37.60;;;;;;5055123;28;20268;-81
2021/07/18 09:50:45;;;;;;;5.03;2.88;;;37.00;38.20;;;;;;5049829;28;20037;-83
2021/07/18 09:53:24;;;;;;;5.45;3.10;;;37.90;37.30;;;;;;5055584;28;20053;-83
2021/07/18 09:56:04;;;;;;;6.18;2.60;;;38.20;37.40;;;;;;5055239;28;20025;-81
2021/07/18 09:58:31;;;;;;;5.85;2.70;;;38.70;36.50;;;;;;5054820;28;20389;-80
2021/07/18 10:00:59;;;;;;;5.50;2.60;;;38.40;36.90;;;;;;5054412;28;20075;-81
2021/07/18 10:03:27;;;;;;;5.05;2.45;;;38.90;35.70;;;;;;5055081;28;20108;-81
2021/07/18 10:06:12;;;;;;;6.47;2.80;;;39.70;35.60;;;;;;5054778;28;20427;-83
2021/07/18 10:08:42;;;;;;;5.80;2.50;;;39.80;33.90;;;;;;5054694;28;20048;-82
2021/07/18 10:11:10;;;;;;;4.82;2.45;;;40.00;33.80;;;;;;5054794;28;20551;-82
2021/07/18 10:13:38;;;;;;;4.38;2.38;;;40.30;34.00;;;;;;5054532;28;20108;-81
2021/07/18 10:16:05;;;;;;;6.47;2.92;;;40.90;33.90;;;;;;5054824;28;20029;-84
2021/07/18 10:18:31;;;;;;;4.97;2.78;;;41.80;32.90;;;;;;5036518;28;20393;-84
2021/07/18 10:20:58;;;;;;;4.13;2.55;;;41.70;32.20;;;;;;5054428;28;20017;-80
2021/07/18 10:23:25;;;;;;;3.80;2.60;;;42.20;32.60;;;;;;5054398;28;20032;-82
2021/07/18 10:25:52;;;;;;;5.30;2.70;;;42.50;31.90;;;;;;5054329;28;20537;-82
2021/07/18 10:28:23;;;;;;;4.25;2.58;;;43.50;30.90;;;;;;5054245;28;20040;-81
2021/07/18 10:30:51;;;;;;;5.65;2.53;;;43.80;30.00;;;;;;5054630;28;20103;-83
2021/07/18 10:33:18;;;;;;;4.43;2.15;;;44.70;29.70;;;;;;5054149;28;20052;-82
2021/07/18 10:35:46;;;;;;;5.67;2.70;;;45.10;28.90;;;;;;5054142;28;20024;-80
2021/07/18 10:38:18;;;;;;;3.20;2.10;;;44.90;28.90;;;;;;5054112;28;20032;-80
2021/07/18 10:41:02;;;;;;;2.60;2.13;;;45.80;28.70;;;;;;5054086;28;20103;-84
2021/07/18 10:43:48;;;;;;;3.10;2.20;;;46.50;28.00;;;;;;5054337;28;20029;-83
2021/07/18 10:46:39;;;;;;;3.72;2.40;;;46.60;27.90;;;;;;5035833;28;20409;-83
2021/07/18 10:49:05;;;;;;;4.07;2.40;;;47.50;27.50;;;;;;5054036;28;20040;-82
2021/07/18 10:51:36;;;;;;;5.30;2.33;;;46.90;27.40;;;;;;5053886;28;20078;-80
2021/07/18 10:54:13;;;;;;;4.15;2.30;;;47.00;27.70;;;;;;5053905;28;20021;-84
2021/07/18 10:56:44;;;;;;;5.82;2.60;;;46.80;28.30;;;;;;5054390;28;20017;-83
2021/07/18 10:59:37;;;;;;;5.28;2.45;;;47.20;27.20;;;;;;5035577;28;20033;-84
2021/07/18 11:02:11;;;;;;;5.25;2.15;;;46.90;27.10;;;;;;5053763;28;20055;-80
2021/07/18 11:05:04;;;;;;;3.20;2.03;;;47.30;26.90;;;;;;5053664;28;20465;-82
2021/07/18 11:07:36;;;;;;;3.03;2.30;;;47.80;27.10;;;;;;5051564;28;20060;-84
2021/07/18 11:10:08;;;;;;;5.28;2.40;;;47.30;26.90;;;;;;5053163;28;20051;-81
2021/07/18 11:12:36;;;;;;;3.88;2.00;;;46.60;27.10;;;;;;5053054;28;20107;-83
2021/07/18 11:15:21;;;;;;;4.25;2.08;;;45.70;27.90;;;;;;5053458;28;20099;-81
2021/07/18 11:18:06;;;;;;;3.22;2.20;;;44.60;28.70;;;;;;5053631;28;20032;-82
2021/07/18 11:20:42;;;;;;;3.95;2.28;;;42.10;29.70;;;;;;5054004;28;20029;-81
2021/07/18 11:23:09;;;;;;;3.72;2.20;;;39.10;33.00;;;;;;5053625;28;20049;-81
2021/07/18 11:25:42;;;;;;;5.57;2.60;;;36.70;36.00;;;;;;5053235;28;20029;-83
2021/07/18 11:28:30;;;;;;;3.38;2.13;;;34.60;37.20;;;;;;5053718;28;20017;-85
2021/07/18 11:31:14;;;;;;;5.30;3.08;;;33.20;40.20;;;;;;5053255;28;20017;-87
2021/07/18 11:34:04;;;;;;;6.60;2.55;;;32.30;43.00;;;;;;5053268;28;20052;-84
2021/07/18 11:36:32;;;;;;;5.25;2.67;;;31.60;43.30;;;;;;5053838;28;20025;-85
2021/07/18 11:39:16;;;;;;;6.05;2.75;;;31.40;44.30;;;;;;5053404;28;20057;-84
2021/07/18 11:41:42;;;;;;;4.63;2.70;;;30.80;45.20;;;;;;5035243;28;20397;-85
2021/07/18 11:44:09;;;;;;;4.32;2.55;;;30.50;46.80;;;;;;5053098;28;20024;-84
2021/07/18 11:46:41;;;;;;;8.02;3.00;;;30.20;48.00;;;;;;5053030;28;20082;-84
2021/07/18 11:49:08;;;;;;;5.43;2.55;;;30.10;49.20;;;;;;5053034;28;20021;-83
2021/07/18 11:51:36;;;;;;;4.15;2.50;;;29.90;48.00;;;;;;5053353;28;20025;-84
2021/07/18 11:54:04;;;;;;;6.28;2.58;;;29.70;48.90;;;;;;5053360;28;20039;-84
2021/07/18 11:56:34;;;;;;;5.10;2.60;;;29.50;48.20;;;;;;5053273;28;20108;-83
2021/07/18 11:59:12;;;;;;;4.28;2.45;;;29.20;47.90;;;;;;5052975;28;20409;-85
2021/07/18 12:01:39;;;;;;;4.65;2.45;;;29.30;48.80;;;;;;5053047;28;20501;-84
2021/07/18 12:04:07;;;;;;;6.22;2.45;;;29.30;50.60;;;;;;5052896;28;20544;-84
2021/07/18 12:06:33;;;;;;;4.90;2.80;;;29.20;49.10;;;;;;5053136;28;20017;-82
2021/07/18 12:09:19;;;;;;;3.45;2.55;;;29.00;48.20;;;;;;5052792;28;20041;-82
2021/07/18 12:11:51;;;;;;;5.88;2.50;;;28.90;49.30;;;;;;5053178;28;20033;-83
2021/07/18 12:14:18;;;;;;;6.30;2.72;;;29.00;49.40;;;;;;5053139;28;20035;-85
2021/07/18 12:16:44;;;;;;;6.15;2.78;;;29.00;49.80;;;;;;5052862;28;20028;-84
2021/07/18 12:19:12;;;;;;;4.03;2.70;;;28.90;49.10;;;;;;5052824;28;20024;-84
2021/07/18 12:21:40;;;;;;;5.60;2.78;;;29.00;50.80;;;;;;5052775;28;20025;-83
2021/07/18 12:24:37;;;;;;;4.80;2.50;;;28.90;48.10;;;;;;5056272;28;20115;-84
2021/07/18 12:27:06;;;;;;;5.47;2.63;;;28.80;49.40;;;;;;5057131;28;20079;-84
2021/07/18 12:29:33;;;;;;;6.43;2.93;;;28.60;47.90;;;;;;5056616;28;20028;-84
2021/07/18 12:32:00;;;;;;;5.43;2.67;;;28.50;48.70;;;;;;5057107;28;20021;-83
2021/07/18 12:34:29;;;;;;;5.00;2.50;;;28.50;49.00;;;;;;5056504;28;20028;-82
2021/07/18 12:37:07;;;;;;;4.40;2.60;;;28.70;49.80;;;;;;5056488;28;20029;-83
2021/07/18 12:39:34;;;;;;;7.95;2.80;;;28.60;48.20;;;;;;5056955;28;20481;-84
2021/07/18 12:42:04;;;;;;;5.63;2.88;;;28.60;49.90;;;;;;5056389;28;20025;-85
2021/07/18 12:44:36;;;;;;;4.13;2.35;;;28.60;49.20;;;;;;5056305;28;20029;-82
2021/07/18 12:47:38;;;;;;;5.68;2.58;;;28.50;48.30;;;;;;5056514;28;20477;-83
2021/07/18 12:50:25;;;;;;;5.07;2.45;;;28.60;50.10;;;;;;5034679;28;20201;-84
2021/07/18 12:52:53;;;;;;;4.32;2.35;;;28.60;47.40;;;;;;5038028;28;20020;-84
2021/07/18 12:55:24;;;;;;;3.20;2.60;;;28.60;47.20;;;;;;5056057;28;20029;-84
2021/07/18 12:57:50;;;;;;;3.63;2.10;;;28.60;48.20;;;;;;5056353;28;20029;-82
2021/07/18 13:00:23;;;;;;;4.82;2.63;;;28.60;48.60;;;;;;5056215;28;20083;-84
2021/07/18 13:02:50;;;;;;;4.70;2.60;;;28.50;47.80;;;;;;5056052;28;20017;-83
2021/07/18 13:05:16;;;;;;;4.35;2.50;;;28.60;47.10;;;;;;5055872;28;20400;-84
2021/07/18 13:07:42;;;;;;;4.55;2.25;;;28.60;45.80;;;;;;5055763;28;20020;-85
2021/07/18 13:10:18;;;;;;;4.80;2.28;;;28.60;45.30;;;;;;5057070;28;20053;-84
2021/07/18 13:12:44;;;;;;;5.97;2.78;;;28.50;46.00;;;;;;5056104;28;20155;-84